sensor_id;sensor_type;location;lat;lon;timestamp;P1;durP1;ratioP1;P2;durP2;ratioP2
22186;SDS011;11259;52.146;12.844;2023-04-16T00:01:04;6.47;;;4.20;;
22186;SDS011;11259;52.146;12.844;2023-04-16T00:03:29;6.15;;;4.18;;
22186;SDS011;11259;52.146;12.844;2023-04-16T00:05:56;7.20;;;4.07;;
22186;SDS011;11259;52.146;12.844;2023-04-16T00:08:21;6.25;;;4.32;;
22186;SDS011;11259;52.146;12.844;2023-04-16T00:10:47;9.00;;;4.88;;
22186;SDS011;11259;52.146;12.844;2023-04-16T00:13:12;8.75;;;4.28;;
22186;SDS011;11259;52.146;12.844;2023-04-16T00:15:37;7.32;;;3.80;;
22186;SDS011;11259;52.146;12.844;2023-04-16T00:18:03;5.53;;;3.38;;
22186;SDS011;11259;52.146;12.844;2023-04-16T00:20:28;7.22;;;3.80;;
22186;SDS011;11259;52.146;12.844;2023-04-16T00:22:55;5.22;;;3.67;;
22186;SDS011;11259;52.146;12.844;2023-04-16T00:25:20;6.07;;;4.22;;
22186;SDS011;11259;52.146;12.844;2023-04-16T00:27:45;6.00;;;4.07;;
22186;SDS011;11259;52.146;12.844;2023-04-16T00:30:11;5.05;;;3.70;;
22186;SDS011;11259;52.146;12.844;2023-04-16T00:32:37;7.60;;;4.55;;
22186;SDS011;11259;52.146;12.844;2023-04-16T00:35:02;5.70;;;4.13;;
22186;SDS011;11259;52.146;12.844;2023-04-16T00:37:28;6.32;;;4.10;;
22186;SDS011;11259;52.146;12.844;2023-04-16T00:39:55;7.65;;;4.57;;
22186;SDS011;11259;52.146;12.844;2023-04-16T00:42:20;6.40;;;4.47;;
22186;SDS011;11259;52.146;12.844;2023-04-16T00:44:46;7.25;;;3.80;;
22186;SDS011;11259;52.146;12.844;2023-04-16T00:47:11;7.10;;;4.80;;
22186;SDS011;11259;52.146;12.844;2023-04-16T00:49:36;5.22;;;3.83;;
22186;SDS011;11259;52.146;12.844;2023-04-16T00:52:02;6.45;;;4.00;;
22186;SDS011;11259;52.146;12.844;2023-04-16T00:54:27;6.50;;;3.50;;
22186;SDS011;11259;52.146;12.844;2023-04-16T00:56:55;6.57;;;4.32;;
22186;SDS011;11259;52.146;12.844;2023-04-16T00:59:20;5.78;;;4.07;;
22186;SDS011;11259;52.146;12.844;2023-04-16T01:01:46;8.75;;;4.90;;
22186;SDS011;11259;52.146;12.844;2023-04-16T01:04:11;6.85;;;4.25;;
22186;SDS011;11259;52.146;12.844;2023-04-16T01:06:36;5.97;;;4.30;;
22186;SDS011;11259;52.146;12.844;2023-04-16T01:09:02;7.60;;;4.43;;
22186;SDS011;11259;52.146;12.844;2023-04-16T01:11:27;8.00;;;4.80;;
22186;SDS011;11259;52.146;12.844;2023-04-16T01:13:54;6.30;;;3.75;;
22186;SDS011;11259;52.146;12.844;2023-04-16T01:16:19;8.32;;;4.65;;
22186;SDS011;11259;52.146;12.844;2023-04-16T01:18:44;6.03;;;4.10;;
22186;SDS011;11259;52.146;12.844;2023-04-16T01:21:11;5.93;;;3.65;;
22186;SDS011;11259;52.146;12.844;2023-04-16T01:23:36;8.13;;;4.47;;
22186;SDS011;11259;52.146;12.844;2023-04-16T01:26:02;5.65;;;3.75;;
22186;SDS011;11259;52.146;12.844;2023-04-16T01:28:27;7.28;;;3.80;;
22186;SDS011;11259;52.146;12.844;2023-04-16T01:30:52;8.23;;;4.38;;
22186;SDS011;11259;52.146;12.844;2023-04-16T01:33:18;9.45;;;5.40;;
22186;SDS011;11259;52.146;12.844;2023-04-16T01:35:45;6.82;;;4.47;;
22186;SDS011;11259;52.146;12.844;2023-04-16T01:38:12;5.40;;;4.18;;
22186;SDS011;11259;52.146;12.844;2023-04-16T01:40:37;5.10;;;3.72;;
22186;SDS011;11259;52.146;12.844;2023-04-16T01:43:02;7.78;;;5.07;;
22186;SDS011;11259;52.146;12.844;2023-04-16T01:45:29;6.88;;;4.03;;
22186;SDS011;11259;52.146;12.844;2023-04-16T01:47:55;5.57;;;4.18;;
22186;SDS011;11259;52.146;12.844;2023-04-16T01:50:20;7.80;;;5.03;;
22186;SDS011;11259;52.146;12.844;2023-04-16T01:52:46;6.13;;;4.43;;
22186;SDS011;11259;52.146;12.844;2023-04-16T01:55:13;6.57;;;5.10;;
22186;SDS011;11259;52.146;12.844;2023-04-16T01:57:38;6.35;;;4.55;;
22186;SDS011;11259;52.146;12.844;2023-04-16T02:00:04;6.55;;;4.68;;
22186;SDS011;11259;52.146;12.844;2023-04-16T02:02:30;9.48;;;4.68;;
22186;SDS011;11259;52.146;12.844;2023-04-16T02:04:55;7.90;;;5.10;;
22186;SDS011;11259;52.146;12.844;2023-04-16T02:07:21;7.45;;;5.25;;
22186;SDS011;11259;52.146;12.844;2023-04-16T02:09:46;7.10;;;4.55;;
22186;SDS011;11259;52.146;12.844;2023-04-16T02:12:13;6.97;;;4.95;;
22186;SDS011;11259;52.146;12.844;2023-04-16T02:14:38;8.88;;;5.65;;
22186;SDS011;11259;52.146;12.844;2023-04-16T02:17:04;8.13;;;5.40;;
22186;SDS011;11259;52.146;12.844;2023-04-16T02:19:29;8.73;;;5.93;;
22186;SDS011;11259;52.146;12.844;2023-04-16T02:21:54;9.05;;;4.80;;
22186;SDS011;11259;52.146;12.844;2023-04-16T02:24:20;8.00;;;5.55;;
22186;SDS011;11259;52.146;12.844;2023-04-16T02:26:45;7.18;;;5.05;;
22186;SDS011;11259;52.146;12.844;2023-04-16T02:29:12;6.90;;;4.85;;
22186;SDS011;11259;52.146;12.844;2023-04-16T02:31:38;9.40;;;5.47;;
22186;SDS011;11259;52.146;12.844;2023-04-16T02:34:03;9.02;;;5.15;;
22186;SDS011;11259;52.146;12.844;2023-04-16T02:36:29;11.90;;;5.13;;
22186;SDS011;11259;52.146;12.844;2023-04-16T02:38:54;6.70;;;5.22;;
22186;SDS011;11259;52.146;12.844;2023-04-16T02:41:20;9.23;;;5.22;;
22186;SDS011;11259;52.146;12.844;2023-04-16T02:43:45;6.85;;;5.70;;
22186;SDS011;11259;52.146;12.844;2023-04-16T02:46:12;8.32;;;4.53;;
22186;SDS011;11259;52.146;12.844;2023-04-16T02:48:37;7.00;;;5.00;;
22186;SDS011;11259;52.146;12.844;2023-04-16T02:51:03;8.65;;;5.10;;
22186;SDS011;11259;52.146;12.844;2023-04-16T02:53:28;7.15;;;4.15;;
22186;SDS011;11259;52.146;12.844;2023-04-16T02:55:54;8.57;;;5.65;;
22186;SDS011;11259;52.146;12.844;2023-04-16T02:58:19;9.23;;;5.70;;
22186;SDS011;11259;52.146;12.844;2023-04-16T03:00:45;8.35;;;6.38;;
22186;SDS011;11259;52.146;12.844;2023-04-16T03:03:12;7.35;;;4.50;;
22186;SDS011;11259;52.146;12.844;2023-04-16T03:05:38;8.00;;;5.20;;
22186;SDS011;11259;52.146;12.844;2023-04-16T03:08:03;8.40;;;5.35;;
22186;SDS011;11259;52.146;12.844;2023-04-16T03:10:29;7.75;;;4.85;;
22186;SDS011;11259;52.146;12.844;2023-04-16T03:12:54;8.35;;;5.13;;
22186;SDS011;11259;52.146;12.844;2023-04-16T03:15:20;10.15;;;5.15;;
22186;SDS011;11259;52.146;12.844;2023-04-16T03:17:45;6.50;;;5.18;;
22186;SDS011;11259;52.146;12.844;2023-04-16T03:20:12;9.18;;;4.68;;
22186;SDS011;11259;52.146;12.844;2023-04-16T03:22:37;8.65;;;5.13;;
22186;SDS011;11259;52.146;12.844;2023-04-16T03:25:03;6.68;;;3.95;;
22186;SDS011;11259;52.146;12.844;2023-04-16T03:27:28;9.25;;;4.85;;
22186;SDS011;11259;52.146;12.844;2023-04-16T03:29:54;7.93;;;5.38;;
22186;SDS011;11259;52.146;12.844;2023-04-16T03:32:19;8.45;;;5.13;;
22186;SDS011;11259;52.146;12.844;2023-04-16T03:34:44;6.25;;;4.30;;
22186;SDS011;11259;52.146;12.844;2023-04-16T03:37:11;6.18;;;4.45;;
22186;SDS011;11259;52.146;12.844;2023-04-16T03:39:36;6.63;;;4.22;;
22186;SDS011;11259;52.146;12.844;2023-04-16T03:42:02;8.10;;;4.78;;
22186;SDS011;11259;52.146;12.844;2023-04-16T03:44:27;7.70;;;4.47;;
22186;SDS011;11259;52.146;12.844;2023-04-16T03:46:53;8.45;;;4.18;;
22186;SDS011;11259;52.146;12.844;2023-04-16T03:49:18;5.55;;;4.57;;
22186;SDS011;11259;52.146;12.844;2023-04-16T03:51:43;6.75;;;4.20;;
22186;SDS011;11259;52.146;12.844;2023-04-16T03:54:10;5.28;;;3.75;;
22186;SDS011;11259;52.146;12.844;2023-04-16T03:56:35;8.38;;;4.70;;
22186;SDS011;11259;52.146;12.844;2023-04-16T03:59:01;6.70;;;4.70;;
22186;SDS011;11259;52.146;12.844;2023-04-16T04:01:26;8.43;;;5.40;;
22186;SDS011;11259;52.146;12.844;2023-04-16T04:03:51;6.13;;;4.10;;
22186;SDS011;11259;52.146;12.844;2023-04-16T04:06:17;7.10;;;4.28;;
22186;SDS011;11259;52.146;12.844;2023-04-16T04:08:43;9.50;;;6.05;;
22186;SDS011;11259;52.146;12.844;2023-04-16T04:11:10;5.38;;;4.20;;
22186;SDS011;11259;52.146;12.844;2023-04-16T04:13:35;7.38;;;5.00;;
22186;SDS011;11259;52.146;12.844;2023-04-16T04:16:00;8.32;;;4.65;;
22186;SDS011;11259;52.146;12.844;2023-04-16T04:18:26;7.15;;;4.85;;
22186;SDS011;11259;52.146;12.844;2023-04-16T04:20:51;7.72;;;4.53;;
22186;SDS011;11259;52.146;12.844;2023-04-16T04:23:16;8.23;;;5.60;;
22186;SDS011;11259;52.146;12.844;2023-04-16T04:25:41;8.23;;;4.68;;
22186;SDS011;11259;52.146;12.844;2023-04-16T04:28:09;7.25;;;4.68;;
22186;SDS011;11259;52.146;12.844;2023-04-16T04:30:34;8.02;;;5.47;;
22186;SDS011;11259;52.146;12.844;2023-04-16T04:32:59;7.40;;;4.85;;
22186;SDS011;11259;52.146;12.844;2023-04-16T04:35:25;11.20;;;5.63;;
22186;SDS011;11259;52.146;12.844;2023-04-16T04:37:50;6.85;;;5.57;;
22186;SDS011;11259;52.146;12.844;2023-04-16T04:40:15;9.10;;;5.15;;
22186;SDS011;11259;52.146;12.844;2023-04-16T04:42:41;9.52;;;5.95;;
22186;SDS011;11259;52.146;12.844;2023-04-16T04:45:08;9.75;;;5.63;;
22186;SDS011;11259;52.146;12.844;2023-04-16T04:47:34;8.25;;;5.50;;
22186;SDS011;11259;52.146;12.844;2023-04-16T04:50:00;8.05;;;5.18;;
22186;SDS011;11259;52.146;12.844;2023-04-16T04:52:25;9.13;;;5.60;;
22186;SDS011;11259;52.146;12.844;2023-04-16T04:54:51;11.45;;;6.38;;
22186;SDS011;11259;52.146;12.844;2023-04-16T04:57:16;9.30;;;5.32;;
22186;SDS011;11259;52.146;12.844;2023-04-16T04:59:41;6.78;;;4.43;;
22186;SDS011;11259;52.146;12.844;2023-04-16T05:02:08;6.63;;;4.68;;
22186;SDS011;11259;52.146;12.844;2023-04-16T05:04:33;8.02;;;5.05;;
22186;SDS011;11259;52.146;12.844;2023-04-16T05:06:59;8.38;;;4.60;;
22186;SDS011;11259;52.146;12.844;2023-04-16T05:09:24;9.70;;;5.53;;
22186;SDS011;11259;52.146;12.844;2023-04-16T05:11:49;9.77;;;5.88;;
22186;SDS011;11259;52.146;12.844;2023-04-16T05:14:15;8.38;;;5.13;;
22186;SDS011;11259;52.146;12.844;2023-04-16T05:16:40;8.88;;;5.70;;
22186;SDS011;11259;52.146;12.844;2023-04-16T05:19:07;9.63;;;5.55;;
22186;SDS011;11259;52.146;12.844;2023-04-16T05:21:32;9.50;;;5.30;;
22186;SDS011;11259;52.146;12.844;2023-04-16T05:23:58;11.70;;;7.18;;
22186;SDS011;11259;52.146;12.844;2023-04-16T05:26:23;9.45;;;5.35;;
22186;SDS011;11259;52.146;12.844;2023-04-16T05:28:48;14.48;;;5.70;;
22186;SDS011;11259;52.146;12.844;2023-04-16T05:31:14;10.52;;;4.95;;
22186;SDS011;11259;52.146;12.844;2023-04-16T05:33:39;11.18;;;5.93;;
22186;SDS011;11259;52.146;12.844;2023-04-16T05:36:06;11.23;;;6.53;;
22186;SDS011;11259;52.146;12.844;2023-04-16T05:38:31;10.90;;;5.38;;
22186;SDS011;11259;52.146;12.844;2023-04-16T05:40:57;8.23;;;5.28;;
22186;SDS011;11259;52.146;12.844;2023-04-16T05:43:22;9.45;;;5.88;;
22186;SDS011;11259;52.146;12.844;2023-04-16T05:45:47;11.60;;;6.10;;
22186;SDS011;11259;52.146;12.844;2023-04-16T05:48:13;8.75;;;5.22;;
22186;SDS011;11259;52.146;12.844;2023-04-16T05:50:38;8.48;;;5.88;;
22186;SDS011;11259;52.146;12.844;2023-04-16T05:53:05;11.38;;;6.43;;
22186;SDS011;11259;52.146;12.844;2023-04-16T05:55:31;12.35;;;6.70;;
22186;SDS011;11259;52.146;12.844;2023-04-16T05:57:56;10.23;;;5.30;;
22186;SDS011;11259;52.146;12.844;2023-04-16T06:00:22;8.45;;;5.75;;
22186;SDS011;11259;52.146;12.844;2023-04-16T06:02:47;8.18;;;4.78;;
22186;SDS011;11259;52.146;12.844;2023-04-16T06:05:12;8.88;;;5.00;;
22186;SDS011;11259;52.146;12.844;2023-04-16T06:07:38;11.27;;;5.97;;
22186;SDS011;11259;52.146;12.844;2023-04-16T06:10:05;8.25;;;5.45;;
22186;SDS011;11259;52.146;12.844;2023-04-16T06:12:31;9.85;;;5.53;;
22186;SDS011;11259;52.146;12.844;2023-04-16T06:14:56;8.90;;;4.97;;
22186;SDS011;11259;52.146;12.844;2023-04-16T06:17:21;12.88;;;6.63;;
22186;SDS011;11259;52.146;12.844;2023-04-16T06:19:47;7.82;;;4.90;;
22186;SDS011;11259;52.146;12.844;2023-04-16T06:22:12;6.03;;;4.85;;
22186;SDS011;11259;52.146;12.844;2023-04-16T06:24:37;7.50;;;4.30;;
22186;SDS011;11259;52.146;12.844;2023-04-16T06:27:04;5.78;;;4.20;;
22186;SDS011;11259;52.146;12.844;2023-04-16T06:29:29;7.10;;;4.85;;
22186;SDS011;11259;52.146;12.844;2023-04-16T06:31:55;6.82;;;4.57;;
22186;SDS011;11259;52.146;12.844;2023-04-16T06:34:20;12.23;;;4.75;;
22186;SDS011;11259;52.146;12.844;2023-04-16T06:36:45;6.03;;;4.53;;
22186;SDS011;11259;52.146;12.844;2023-04-16T06:39:11;10.27;;;6.15;;
22186;SDS011;11259;52.146;12.844;2023-04-16T06:41:36;6.05;;;4.43;;
22186;SDS011;11259;52.146;12.844;2023-04-16T06:44:03;11.80;;;6.10;;
22186;SDS011;11259;52.146;12.844;2023-04-16T06:46:29;11.73;;;5.32;;
22186;SDS011;11259;52.146;12.844;2023-04-16T06:48:55;8.70;;;4.57;;
22186;SDS011;11259;52.146;12.844;2023-04-16T06:51:20;10.38;;;5.80;;
22186;SDS011;11259;52.146;12.844;2023-04-16T06:53:45;7.53;;;4.93;;
22186;SDS011;11259;52.146;12.844;2023-04-16T06:56:11;7.50;;;5.10;;
22186;SDS011;11259;52.146;12.844;2023-04-16T06:58:36;9.05;;;4.97;;
22186;SDS011;11259;52.146;12.844;2023-04-16T07:01:03;6.13;;;4.43;;
22186;SDS011;11259;52.146;12.844;2023-04-16T07:03:28;8.23;;;4.75;;
22186;SDS011;11259;52.146;12.844;2023-04-16T07:05:53;6.45;;;3.85;;
22186;SDS011;11259;52.146;12.844;2023-04-16T07:08:19;7.82;;;4.80;;
22186;SDS011;11259;52.146;12.844;2023-04-16T07:10:44;7.70;;;4.85;;
22186;SDS011;11259;52.146;12.844;2023-04-16T07:13:09;7.03;;;4.03;;
22186;SDS011;11259;52.146;12.844;2023-04-16T07:15:35;6.05;;;4.35;;
22186;SDS011;11259;52.146;12.844;2023-04-16T07:18:02;7.05;;;4.65;;
22186;SDS011;11259;52.146;12.844;2023-04-16T07:20:27;8.40;;;4.90;;
22186;SDS011;11259;52.146;12.844;2023-04-16T07:22:52;7.00;;;4.93;;
22186;SDS011;11259;52.146;12.844;2023-04-16T07:25:18;7.68;;;5.10;;
22186;SDS011;11259;52.146;12.844;2023-04-16T07:27:43;6.57;;;4.25;;
22186;SDS011;11259;52.146;12.844;2023-04-16T07:30:09;6.75;;;4.65;;
22186;SDS011;11259;52.146;12.844;2023-04-16T07:32:34;8.20;;;4.18;;
22186;SDS011;11259;52.146;12.844;2023-04-16T07:35:01;6.15;;;4.50;;
22186;SDS011;11259;52.146;12.844;2023-04-16T07:37:26;7.75;;;4.93;;
22186;SDS011;11259;52.146;12.844;2023-04-16T07:39:52;7.40;;;4.18;;
22186;SDS011;11259;52.146;12.844;2023-04-16T07:42:17;7.00;;;4.75;;
22186;SDS011;11259;52.146;12.844;2023-04-16T07:44:42;6.95;;;4.90;;
22186;SDS011;11259;52.146;12.844;2023-04-16T07:47:08;9.45;;;5.57;;
22186;SDS011;11259;52.146;12.844;2023-04-16T07:49:33;7.55;;;5.43;;
22186;SDS011;11259;52.146;12.844;2023-04-16T07:52:00;6.00;;;4.63;;
22186;SDS011;11259;52.146;12.844;2023-04-16T07:54:25;8.10;;;4.70;;
22186;SDS011;11259;52.146;12.844;2023-04-16T07:56:51;7.97;;;5.00;;
22186;SDS011;11259;52.146;12.844;2023-04-16T07:59:16;6.43;;;5.10;;
22186;SDS011;11259;52.146;12.844;2023-04-16T08:01:41;7.10;;;4.05;;
22186;SDS011;11259;52.146;12.844;2023-04-16T08:04:07;5.40;;;4.20;;
22186;SDS011;11259;52.146;12.844;2023-04-16T08:06:32;8.68;;;5.28;;
22186;SDS011;11259;52.146;12.844;2023-04-16T08:08:59;6.80;;;4.10;;
22186;SDS011;11259;52.146;12.844;2023-04-16T08:11:24;5.63;;;3.75;;
22186;SDS011;11259;52.146;12.844;2023-04-16T08:13:49;8.88;;;5.22;;
22186;SDS011;11259;52.146;12.844;2023-04-16T08:16:15;8.25;;;4.78;;
22186;SDS011;11259;52.146;12.844;2023-04-16T08:18:40;7.32;;;4.35;;
22186;SDS011;11259;52.146;12.844;2023-04-16T08:21:05;6.28;;;4.68;;
22186;SDS011;11259;52.146;12.844;2023-04-16T08:23:31;7.75;;;4.35;;
22186;SDS011;11259;52.146;12.844;2023-04-16T08:25:58;8.18;;;4.90;;
22186;SDS011;11259;52.146;12.844;2023-04-16T08:28:24;7.32;;;5.38;;
22186;SDS011;11259;52.146;12.844;2023-04-16T08:30:49;8.95;;;6.07;;
22186;SDS011;11259;52.146;12.844;2023-04-16T08:33:15;10.45;;;6.47;;
22186;SDS011;11259;52.146;12.844;2023-04-16T08:35:40;7.85;;;6.32;;
22186;SDS011;11259;52.146;12.844;2023-04-16T08:38:05;7.45;;;5.20;;
22186;SDS011;11259;52.146;12.844;2023-04-16T08:40:31;6.20;;;4.50;;
22186;SDS011;11259;52.146;12.844;2023-04-16T08:42:58;5.85;;;4.57;;
22186;SDS011;11259;52.146;12.844;2023-04-16T08:45:25;7.00;;;4.25;;
22186;SDS011;11259;52.146;12.844;2023-04-16T08:47:51;7.95;;;5.07;;
22186;SDS011;11259;52.146;12.844;2023-04-16T08:50:18;8.93;;;5.10;;
22186;SDS011;11259;52.146;12.844;2023-04-16T08:52:49;7.03;;;4.78;;
22186;SDS011;11259;52.146;12.844;2023-04-16T08:55:15;7.20;;;4.70;;
22186;SDS011;11259;52.146;12.844;2023-04-16T08:57:43;7.75;;;4.35;;
22186;SDS011;11259;52.146;12.844;2023-04-16T09:00:13;8.07;;;4.65;;
22186;SDS011;11259;52.146;12.844;2023-04-16T09:02:39;5.15;;;3.58;;
22186;SDS011;11259;52.146;12.844;2023-04-16T09:05:05;6.63;;;4.22;;
22186;SDS011;11259;52.146;12.844;2023-04-16T09:07:31;4.95;;;3.60;;
22186;SDS011;11259;52.146;12.844;2023-04-16T09:09:57;4.93;;;3.97;;
22186;SDS011;11259;52.146;12.844;2023-04-16T09:12:23;4.93;;;3.20;;
22186;SDS011;11259;52.146;12.844;2023-04-16T09:14:49;4.80;;;3.47;;
22186;SDS011;11259;52.146;12.844;2023-04-16T09:17:16;4.93;;;3.50;;
22186;SDS011;11259;52.146;12.844;2023-04-16T09:19:42;4.57;;;2.95;;
22186;SDS011;11259;52.146;12.844;2023-04-16T09:22:07;6.15;;;4.05;;
22186;SDS011;11259;52.146;12.844;2023-04-16T09:24:33;4.18;;;3.10;;
22186;SDS011;11259;52.146;12.844;2023-04-16T09:26:58;4.60;;;2.78;;
22186;SDS011;11259;52.146;12.844;2023-04-16T09:29:34;5.53;;;3.40;;
22186;SDS011;11259;52.146;12.844;2023-04-16T09:32:00;5.63;;;3.90;;
22186;SDS011;11259;52.146;12.844;2023-04-16T09:34:27;4.93;;;3.50;;
22186;SDS011;11259;52.146;12.844;2023-04-16T09:36:53;5.95;;;3.53;;
22186;SDS011;11259;52.146;12.844;2023-04-16T09:39:18;6.68;;;3.33;;
22186;SDS011;11259;52.146;12.844;2023-04-16T09:41:43;4.30;;;3.28;;
22186;SDS011;11259;52.146;12.844;2023-04-16T09:44:09;3.97;;;2.90;;
22186;SDS011;11259;52.146;12.844;2023-04-16T09:46:35;4.45;;;2.55;;
22186;SDS011;11259;52.146;12.844;2023-04-16T09:49:03;4.90;;;3.15;;
22186;SDS011;11259;52.146;12.844;2023-04-16T09:51:34;3.67;;;2.63;;
22186;SDS011;11259;52.146;12.844;2023-04-16T09:54:00;4.20;;;3.10;;
22186;SDS011;11259;52.146;12.844;2023-04-16T09:56:28;4.90;;;3.55;;
22186;SDS011;11259;52.146;12.844;2023-04-16T09:58:58;4.10;;;2.92;;
22186;SDS011;11259;52.146;12.844;2023-04-16T10:01:23;5.22;;;2.65;;
22186;SDS011;11259;52.146;12.844;2023-04-16T10:03:49;5.80;;;2.50;;
22186;SDS011;11259;52.146;12.844;2023-04-16T10:06:15;4.55;;;3.30;;
22186;SDS011;11259;52.146;12.844;2023-04-16T10:08:47;3.50;;;2.65;;
22186;SDS011;11259;52.146;12.844;2023-04-16T10:11:13;3.97;;;3.05;;
22186;SDS011;11259;52.146;12.844;2023-04-16T10:13:38;4.43;;;3.10;;
22186;SDS011;11259;52.146;12.844;2023-04-16T10:16:04;5.00;;;2.72;;
22186;SDS011;11259;52.146;12.844;2023-04-16T10:18:30;4.15;;;2.63;;
22186;SDS011;11259;52.146;12.844;2023-04-16T10:20:56;3.70;;;2.35;;
22186;SDS011;11259;52.146;12.844;2023-04-16T10:23:21;4.03;;;3.05;;
22186;SDS011;11259;52.146;12.844;2023-04-16T10:25:48;3.47;;;2.97;;
22186;SDS011;11259;52.146;12.844;2023-04-16T10:28:14;5.03;;;2.97;;
22186;SDS011;11259;52.146;12.844;2023-04-16T10:30:40;5.00;;;2.92;;
22186;SDS011;11259;52.146;12.844;2023-04-16T10:33:05;3.90;;;2.70;;
22186;SDS011;11259;52.146;12.844;2023-04-16T10:35:31;7.72;;;3.78;;
22186;SDS011;11259;52.146;12.844;2023-04-16T10:37:56;5.15;;;2.72;;
22186;SDS011;11259;52.146;12.844;2023-04-16T10:40:22;4.82;;;2.85;;
22186;SDS011;11259;52.146;12.844;2023-04-16T10:42:53;4.60;;;3.05;;
22186;SDS011;11259;52.146;12.844;2023-04-16T10:45:20;4.72;;;3.10;;
22186;SDS011;11259;52.146;12.844;2023-04-16T10:47:50;2.53;;;2.13;;
22186;SDS011;11259;52.146;12.844;2023-04-16T10:50:19;5.75;;;3.65;;
22186;SDS011;11259;52.146;12.844;2023-04-16T10:52:44;4.97;;;2.83;;
22186;SDS011;11259;52.146;12.844;2023-04-16T10:55:13;4.25;;;3.20;;
22186;SDS011;11259;52.146;12.844;2023-04-16T10:57:40;5.03;;;3.00;;
22186;SDS011;11259;52.146;12.844;2023-04-16T11:03:09;3.90;;;2.58;;
22186;SDS011;11259;52.146;12.844;2023-04-16T11:05:43;4.15;;;3.50;;
22186;SDS011;11259;52.146;12.844;2023-04-16T11:08:12;6.00;;;4.07;;
22186;SDS011;11259;52.146;12.844;2023-04-16T11:10:38;3.45;;;2.33;;
22186;SDS011;11259;52.146;12.844;2023-04-16T11:13:03;5.65;;;3.13;;
22186;SDS011;11259;52.146;12.844;2023-04-16T11:15:30;4.45;;;3.30;;
22186;SDS011;11259;52.146;12.844;2023-04-16T11:17:55;3.40;;;2.63;;
22186;SDS011;11259;52.146;12.844;2023-04-16T11:20:23;4.53;;;3.53;;
22186;SDS011;11259;52.146;12.844;2023-04-16T11:22:50;5.57;;;3.80;;
22186;SDS011;11259;52.146;12.844;2023-04-16T11:25:19;4.55;;;2.80;;
22186;SDS011;11259;52.146;12.844;2023-04-16T11:27:44;4.60;;;2.75;;
22186;SDS011;11259;52.146;12.844;2023-04-16T11:30:10;4.90;;;3.00;;
22186;SDS011;11259;52.146;12.844;2023-04-16T11:32:36;4.65;;;3.25;;
22186;SDS011;11259;52.146;12.844;2023-04-16T11:35:02;3.15;;;2.50;;
22186;SDS011;11259;52.146;12.844;2023-04-16T11:37:33;4.55;;;3.03;;
22186;SDS011;11259;52.146;12.844;2023-04-16T11:40:00;3.38;;;2.75;;
22186;SDS011;11259;52.146;12.844;2023-04-16T11:42:26;3.72;;;2.67;;
22186;SDS011;11259;52.146;12.844;2023-04-16T11:44:52;4.03;;;3.10;;
22186;SDS011;11259;52.146;12.844;2023-04-16T11:47:18;3.50;;;3.03;;
22186;SDS011;11259;52.146;12.844;2023-04-16T11:49:43;8.68;;;4.70;;
22186;SDS011;11259;52.146;12.844;2023-04-16T11:52:08;5.75;;;4.18;;
22186;SDS011;11259;52.146;12.844;2023-04-16T11:54:35;5.80;;;3.53;;
22186;SDS011;11259;52.146;12.844;2023-04-16T11:57:01;6.20;;;3.67;;
22186;SDS011;11259;52.146;12.844;2023-04-16T11:59:26;6.22;;;4.05;;
22186;SDS011;11259;52.146;12.844;2023-04-16T12:01:52;7.85;;;5.35;;
22186;SDS011;11259;52.146;12.844;2023-04-16T12:04:18;5.15;;;3.33;;
22186;SDS011;11259;52.146;12.844;2023-04-16T12:07:03;6.20;;;3.72;;
22186;SDS011;11259;52.146;12.844;2023-04-16T12:11:56;5.50;;;3.27;;
22186;SDS011;11259;52.146;12.844;2023-04-16T12:14:21;6.07;;;4.05;;
22186;SDS011;11259;52.146;12.844;2023-04-16T12:16:47;3.53;;;2.85;;
22186;SDS011;11259;52.146;12.844;2023-04-16T12:19:13;7.13;;;3.50;;
22186;SDS011;11259;52.146;12.844;2023-04-16T12:21:38;4.82;;;3.60;;
22186;SDS011;11259;52.146;12.844;2023-04-16T12:24:05;5.13;;;3.90;;
22186;SDS011;11259;52.146;12.844;2023-04-16T12:26:39;6.22;;;3.75;;
22186;SDS011;11259;52.146;12.844;2023-04-16T12:29:16;5.93;;;3.53;;
22186;SDS011;11259;52.146;12.844;2023-04-16T12:31:43;4.63;;;3.30;;
22186;SDS011;11259;52.146;12.844;2023-04-16T12:34:08;4.70;;;3.72;;
22186;SDS011;11259;52.146;12.844;2023-04-16T12:36:33;4.35;;;3.05;;
22186;SDS011;11259;52.146;12.844;2023-04-16T12:38:59;4.00;;;3.38;;
22186;SDS011;11259;52.146;12.844;2023-04-16T12:41:24;4.53;;;3.20;;
22186;SDS011;11259;52.146;12.844;2023-04-16T12:43:49;6.53;;;4.10;;
22186;SDS011;11259;52.146;12.844;2023-04-16T12:46:16;4.05;;;3.38;;
22186;SDS011;11259;52.146;12.844;2023-04-16T12:48:41;4.45;;;3.42;;
22186;SDS011;11259;52.146;12.844;2023-04-16T12:51:07;5.05;;;3.78;;
22186;SDS011;11259;52.146;12.844;2023-04-16T12:53:32;5.25;;;3.60;;
22186;SDS011;11259;52.146;12.844;2023-04-16T12:55:57;4.38;;;3.15;;
22186;SDS011;11259;52.146;12.844;2023-04-16T12:58:23;4.13;;;2.67;;
22186;SDS011;11259;52.146;12.844;2023-04-16T13:00:48;4.93;;;3.08;;
22186;SDS011;11259;52.146;12.844;2023-04-16T13:03:15;3.35;;;2.83;;
22186;SDS011;11259;52.146;12.844;2023-04-16T13:05:40;3.83;;;3.08;;
22186;SDS011;11259;52.146;12.844;2023-04-16T13:08:05;4.32;;;2.58;;
22186;SDS011;11259;52.146;12.844;2023-04-16T13:10:31;4.07;;;2.95;;
22186;SDS011;11259;52.146;12.844;2023-04-16T13:12:56;5.03;;;3.17;;
22186;SDS011;11259;52.146;12.844;2023-04-16T13:15:21;4.95;;;3.35;;
22186;SDS011;11259;52.146;12.844;2023-04-16T13:17:47;4.20;;;2.97;;
22186;SDS011;11259;52.146;12.844;2023-04-16T13:20:13;5.45;;;3.65;;
22186;SDS011;11259;52.146;12.844;2023-04-16T13:22:39;5.63;;;3.25;;
22186;SDS011;11259;52.146;12.844;2023-04-16T13:25:05;6.63;;;4.95;;
22186;SDS011;11259;52.146;12.844;2023-04-16T13:27:31;7.20;;;4.22;;
22186;SDS011;11259;52.146;12.844;2023-04-16T13:29:56;5.20;;;3.58;;
22186;SDS011;11259;52.146;12.844;2023-04-16T13:32:22;6.63;;;4.18;;
22186;SDS011;11259;52.146;12.844;2023-04-16T13:34:47;8.52;;;5.00;;
22186;SDS011;11259;52.146;12.844;2023-04-16T13:37:14;9.70;;;6.68;;
22186;SDS011;11259;52.146;12.844;2023-04-16T13:39:39;8.93;;;5.00;;
22186;SDS011;11259;52.146;12.844;2023-04-16T13:42:04;8.13;;;4.65;;
22186;SDS011;11259;52.146;12.844;2023-04-16T13:44:30;8.35;;;5.55;;
22186;SDS011;11259;52.146;12.844;2023-04-16T13:46:55;7.55;;;4.40;;
22186;SDS011;11259;52.146;12.844;2023-04-16T13:49:21;7.03;;;4.30;;
22186;SDS011;11259;52.146;12.844;2023-04-16T13:51:46;7.13;;;4.90;;
22186;SDS011;11259;52.146;12.844;2023-04-16T13:54:13;8.82;;;4.75;;
22186;SDS011;11259;52.146;12.844;2023-04-16T13:56:38;6.45;;;4.80;;
22186;SDS011;11259;52.146;12.844;2023-04-16T13:59:04;6.18;;;4.60;;
22186;SDS011;11259;52.146;12.844;2023-04-16T14:01:29;7.55;;;4.30;;
22186;SDS011;11259;52.146;12.844;2023-04-16T14:03:54;4.50;;;3.38;;
22186;SDS011;11259;52.146;12.844;2023-04-16T14:06:19;5.78;;;4.03;;
22186;SDS011;11259;52.146;12.844;2023-04-16T14:08:45;5.70;;;3.47;;
22186;SDS011;11259;52.146;12.844;2023-04-16T14:11:12;5.30;;;3.55;;
22186;SDS011;11259;52.146;12.844;2023-04-16T14:13:37;7.00;;;4.05;;
22186;SDS011;11259;52.146;12.844;2023-04-16T14:16:02;6.78;;;3.92;;
22186;SDS011;11259;52.146;12.844;2023-04-16T14:18:28;4.50;;;3.38;;
22186;SDS011;11259;52.146;12.844;2023-04-16T14:20:53;4.68;;;3.90;;
22186;SDS011;11259;52.146;12.844;2023-04-16T14:23:18;4.57;;;3.55;;
22186;SDS011;11259;52.146;12.844;2023-04-16T14:25:44;4.63;;;3.40;;
22186;SDS011;11259;52.146;12.844;2023-04-16T14:28:10;5.88;;;4.13;;
22186;SDS011;11259;52.146;12.844;2023-04-16T14:30:36;8.13;;;3.85;;